createdAt,value
2023-05-10T00:00:31.584Z,7.47
2023-05-10T00:05:32.974Z,6.33
2023-05-10T00:10:34.359Z,6.67
2023-05-10T00:15:35.734Z,6.23
2023-05-10T00:20:37.127Z,6.20
2023-05-10T00:25:38.529Z,6.40
2023-05-10T00:30:39.952Z,6.53
2023-05-10T00:35:41.339Z,6.70
2023-05-10T00:40:42.746Z,6.80
2023-05-10T00:45:44.196Z,5.90
2023-05-10T00:50:45.617Z,5.27
2023-05-10T00:55:46.997Z,6.70
2023-05-10T01:00:48.413Z,6.63
2023-05-10T01:05:49.814Z,6.60
2023-05-10T01:10:51.214Z,6.00
2023-05-10T01:15:52.696Z,6.07
2023-05-10T01:20:54.151Z,5.37
2023-05-10T01:25:55.590Z,5.87
2023-05-10T01:30:57.046Z,6.40
2023-05-10T01:35:58.487Z,5.50
2023-05-10T01:40:59.878Z,5.23
2023-05-10T01:46:01.296Z,5.23
2023-05-10T01:51:02.700Z,5.03
2023-05-10T01:56:04.102Z,6.20
2023-05-10T02:01:05.515Z,5.27
2023-05-10T02:06:06.939Z,5.53
2023-05-10T02:11:08.338Z,5.23
2023-05-10T02:16:09.816Z,5.50
2023-05-10T02:21:11.256Z,5.50
2023-05-10T02:26:12.657Z,5.60
2023-05-10T02:31:14.060Z,6.10
2023-05-10T02:36:15.464Z,6.43
2023-05-10T02:41:16.858Z,6.20
2023-05-10T02:46:18.278Z,5.80
2023-05-10T02:51:19.667Z,5.30
2023-05-10T02:56:21.074Z,5.63
2023-05-10T03:01:22.480Z,6.40
2023-05-10T03:06:23.934Z,5.93
2023-05-10T03:11:25.329Z,5.97
2023-05-10T03:16:26.868Z,5.47
2023-05-10T03:21:28.353Z,5.43
2023-05-10T03:26:29.756Z,4.97
2023-05-10T03:31:31.161Z,5.50
2023-05-10T03:36:32.963Z,4.63
2023-05-10T03:41:34.347Z,5.00
2023-05-10T03:46:35.779Z,6.13
2023-05-10T03:51:37.225Z,4.87
2023-05-10T03:56:38.618Z,5.60
2023-05-10T04:01:40.052Z,6.20
2023-05-10T04:06:42.378Z,4.90
2023-05-10T04:11:43.812Z,4.73
2023-05-10T04:16:45.244Z,5.47
2023-05-10T04:21:46.676Z,6.77
2023-05-10T04:26:48.094Z,5.10
2023-05-10T04:31:49.507Z,5.43
2023-05-10T04:36:50.917Z,4.80
2023-05-10T04:41:52.322Z,6.00
2023-05-10T04:46:53.727Z,6.27
2023-05-10T04:51:55.114Z,6.07
2023-05-10T04:56:56.523Z,5.80
2023-05-10T05:01:58.019Z,5.53
2023-05-10T05:06:59.426Z,6.03
2023-05-10T05:12:00.811Z,5.93
2023-05-10T05:17:02.203Z,4.93
2023-05-10T05:22:03.596Z,5.60
2023-05-10T05:27:04.990Z,6.80
2023-05-10T05:32:06.452Z,5.97
2023-05-10T05:37:08.039Z,6.23
2023-05-10T05:42:09.449Z,6.63
2023-05-10T05:47:10.848Z,6.33
2023-05-10T05:52:12.240Z,6.43
2023-05-10T05:57:13.637Z,7.47
2023-05-10T06:02:15.067Z,6.20
2023-05-10T06:07:16.469Z,6.83
2023-05-10T06:12:17.890Z,7.00
2023-05-10T06:17:19.329Z,6.90
2023-05-10T06:22:20.730Z,7.33
2023-05-10T06:27:22.135Z,6.60
2023-05-10T06:32:23.800Z,6.20
2023-05-10T06:37:25.309Z,6.13
2023-05-10T06:42:26.713Z,6.47
2023-05-10T06:47:28.180Z,6.90
2023-05-10T06:52:29.621Z,7.63
2023-05-10T06:57:32.208Z,6.10
2023-05-10T07:02:33.914Z,6.93
2023-05-10T07:07:35.364Z,6.63
2023-05-10T07:12:36.818Z,6.53
2023-05-10T07:17:38.281Z,6.47
2023-05-10T07:22:39.725Z,7.17
2023-05-10T07:27:41.160Z,6.73
2023-05-10T07:32:42.671Z,7.70
2023-05-10T07:37:44.063Z,7.20
2023-05-10T07:42:45.463Z,7.40
2023-05-10T07:47:46.882Z,7.60
2023-05-10T07:52:49.332Z,8.40
2023-05-10T07:57:50.746Z,8.23
2023-05-10T08:02:52.560Z,8.57
2023-05-10T08:07:53.972Z,8.20
2023-05-10T08:12:55.387Z,8.23
2023-05-10T08:17:56.812Z,8.30
2023-05-10T08:22:58.248Z,9.20
2023-05-10T08:27:59.654Z,9.17
2023-05-10T08:33:01.130Z,8.10
2023-05-10T08:38:02.629Z,8.63
2023-05-10T08:43:04.043Z,9.00
2023-05-10T08:48:05.487Z,8.57
2023-05-10T08:53:06.922Z,8.83
2023-05-10T08:58:08.355Z,7.77
2023-05-10T09:03:09.801Z,8.20
2023-05-10T09:08:11.234Z,7.87
2023-05-10T09:13:12.651Z,8.10
2023-05-10T09:18:14.106Z,8.63
2023-05-10T09:23:15.560Z,7.93
2023-05-10T09:28:16.978Z,8.27
2023-05-10T09:33:18.409Z,8.50
2023-05-10T09:38:19.818Z,7.80
2023-05-10T09:43:21.225Z,8.67
2023-05-10T09:48:22.626Z,9.20
2023-05-10T09:53:24.278Z,8.87
2023-05-10T09:58:25.768Z,8.37
2023-05-10T10:03:29.709Z,9.53
2023-05-10T10:08:31.692Z,8.80
2023-05-10T10:13:33.202Z,8.90
2023-05-10T10:18:34.667Z,9.17
2023-05-10T10:23:36.087Z,8.63
2023-05-10T10:28:37.526Z,9.23
2023-05-10T10:33:38.969Z,9.10
2023-05-10T10:38:40.380Z,8.57
2023-05-10T10:43:41.762Z,8.03
2023-05-10T10:48:43.155Z,7.40
2023-05-10T10:53:44.569Z,8.00
2023-05-10T10:58:46.004Z,7.83
2023-05-10T11:03:47.449Z,7.83
2023-05-10T11:08:48.885Z,8.17
2023-05-10T11:13:51.480Z,7.67
2023-05-10T11:18:53.399Z,7.37
2023-05-10T11:23:54.846Z,7.70
2023-05-10T11:28:56.240Z,7.73
2023-05-10T11:33:57.689Z,7.47
2023-05-10T11:38:59.120Z,6.37
2023-05-10T11:44:00.558Z,6.73
2023-05-10T11:49:01.992Z,6.90
2023-05-10T11:54:03.383Z,6.50
2023-05-10T11:59:04.803Z,7.43
2023-05-10T12:04:06.411Z,6.73
2023-05-10T12:09:07.925Z,7.83
2023-05-10T12:14:09.323Z,7.30
2023-05-10T12:19:10.840Z,8.47
2023-05-10T12:24:12.432Z,6.20
2023-05-10T12:29:13.850Z,6.83
2023-05-10T12:34:15.300Z,10.83
2023-05-10T12:39:16.715Z,7.80
2023-05-10T12:44:18.112Z,10.60
2023-05-10T12:49:19.549Z,6.50
2023-05-10T12:54:20.963Z,5.60
2023-05-10T12:59:22.368Z,6.73
2023-05-10T13:04:23.830Z,6.10
2023-05-10T13:09:25.254Z,6.40
2023-05-10T13:14:26.706Z,6.47
2023-05-10T13:19:28.089Z,5.57
2023-05-10T13:24:29.492Z,5.10
2023-05-10T13:29:30.912Z,5.97
2023-05-10T13:34:32.313Z,5.73
2023-05-10T13:39:33.720Z,5.30
2023-05-10T13:44:35.113Z,6.57
2023-05-10T13:49:36.532Z,4.80
2023-05-10T13:54:37.928Z,5.90
2023-05-10T13:59:39.373Z,5.00
2023-05-10T14:04:40.767Z,4.53
2023-05-10T14:09:42.178Z,6.43
2023-05-10T14:14:43.578Z,6.57
2023-05-10T14:19:44.976Z,4.43
2023-05-10T14:24:46.379Z,4.27
2023-05-10T14:29:47.778Z,4.97
2023-05-10T14:34:49.191Z,4.70
2023-05-10T14:39:50.628Z,5.10
2023-05-10T14:44:52.024Z,6.10
2023-05-10T14:49:53.414Z,6.30
2023-05-10T14:54:54.832Z,7.77
2023-05-10T14:59:56.221Z,8.63
2023-05-10T15:04:58.173Z,16.00
2023-05-10T15:09:59.843Z,8.10
2023-05-10T15:15:01.291Z,8.13
2023-05-10T15:20:02.737Z,8.03
2023-05-10T15:25:04.183Z,7.30
2023-05-10T15:30:08.625Z,8.30
2023-05-10T15:35:10.022Z,7.73
2023-05-10T15:40:12.902Z,9.87
2023-05-10T15:45:14.939Z,10.23
2023-05-10T15:50:16.619Z,8.07
2023-05-10T15:55:18.318Z,12.33
2023-05-10T16:00:19.982Z,11.70
2023-05-10T16:05:21.389Z,13.40
2023-05-10T16:10:22.789Z,10.70
2023-05-10T16:15:24.173Z,10.47
2023-05-10T16:20:25.564Z,11.50
2023-05-10T16:25:27.031Z,10.47
2023-05-10T16:30:28.415Z,11.93
2023-05-10T16:35:29.796Z,11.17
2023-05-10T16:40:31.192Z,7.90
2023-05-10T16:45:32.610Z,9.73
2023-05-10T16:50:34.015Z,7.13
2023-05-10T16:55:35.467Z,6.57
2023-05-10T17:00:36.863Z,5.67
2023-05-10T17:05:38.296Z,7.53
2023-05-10T17:10:39.751Z,5.30
2023-05-10T17:15:41.294Z,6.43
2023-05-10T17:20:42.748Z,6.77
2023-05-10T17:25:44.163Z,6.23
2023-05-10T17:30:45.568Z,4.83
2023-05-10T17:35:46.967Z,6.27
2023-05-10T17:40:48.372Z,6.67
2023-05-10T17:45:49.826Z,6.20
2023-05-10T17:50:51.317Z,6.27
2023-05-10T17:55:52.972Z,9.23
2023-05-10T18:00:54.425Z,6.57
2023-05-10T18:05:55.893Z,9.70
2023-05-10T18:10:57.316Z,8.80
2023-05-10T18:15:58.713Z,10.13
2023-05-10T18:21:00.120Z,15.40
2023-05-10T18:26:01.570Z,13.27
2023-05-10T18:31:02.974Z,8.73
2023-05-10T18:36:04.395Z,7.80
2023-05-10T18:41:05.797Z,6.40
2023-05-10T18:46:07.233Z,7.63
2023-05-10T18:51:08.660Z,6.20
2023-05-10T18:56:10.043Z,8.80
2023-05-10T19:01:11.486Z,9.20
2023-05-10T19:06:12.964Z,9.23
2023-05-10T19:11:14.362Z,11.13
2023-05-10T19:16:15.910Z,7.17
2023-05-10T19:21:18.138Z,7.70
2023-05-10T19:26:19.644Z,7.20
2023-05-10T19:31:21.286Z,13.87
2023-05-10T19:36:23.022Z,15.87
2023-05-10T19:41:24.480Z,17.70
2023-05-10T19:46:26.072Z,18.20
2023-05-10T19:51:27.510Z,16.73
2023-05-10T19:56:28.925Z,14.00
2023-05-10T20:01:30.669Z,13.70
2023-05-10T20:06:32.164Z,11.80
2023-05-10T20:11:33.558Z,11.93
2023-05-10T20:16:34.990Z,11.00
2023-05-10T20:21:36.413Z,8.83
2023-05-10T20:26:37.817Z,10.13
2023-05-10T20:31:39.229Z,9.60
2023-05-10T20:36:40.662Z,11.07
2023-05-10T20:41:42.059Z,9.57
2023-05-10T20:46:43.451Z,8.17
2023-05-10T20:51:44.840Z,8.40
2023-05-10T20:56:46.247Z,10.40
2023-05-10T21:01:47.672Z,13.00
2023-05-10T21:06:49.113Z,6.80
2023-05-10T21:11:50.495Z,7.40
2023-05-10T21:16:51.896Z,6.90
2023-05-10T21:21:54.269Z,6.23
2023-05-10T21:26:55.742Z,6.47
2023-05-10T21:31:57.207Z,7.20
2023-05-10T21:36:58.724Z,5.60
2023-05-10T21:42:00.182Z,6.33
2023-05-10T21:47:01.640Z,10.30
2023-05-10T21:52:03.097Z,6.60
2023-05-10T21:57:04.478Z,5.80
2023-05-10T22:02:05.908Z,8.27
2023-05-10T22:07:07.347Z,5.70
2023-05-10T22:12:08.852Z,6.07
2023-05-10T22:17:10.371Z,5.33
2023-05-10T22:22:11.933Z,6.07
2023-05-10T22:27:13.376Z,4.93
2023-05-10T22:32:14.775Z,6.73
2023-05-10T22:37:16.172Z,5.80
2023-05-10T22:42:17.560Z,8.60
2023-05-10T22:47:18.953Z,5.10
2023-05-10T22:52:20.382Z,5.90
2023-05-10T22:57:21.804Z,4.83
2023-05-10T23:02:23.213Z,5.20
2023-05-10T23:07:24.639Z,4.93
2023-05-10T23:12:26.059Z,5.60
2023-05-10T23:17:27.524Z,4.33
2023-05-10T23:22:28.970Z,4.73
2023-05-10T23:27:30.369Z,5.37
2023-05-10T23:32:31.800Z,4.90
2023-05-10T23:37:33.234Z,5.30
2023-05-10T23:42:34.626Z,5.77
2023-05-10T23:47:36.059Z,6.60
2023-05-10T23:52:37.474Z,4.30
2023-05-10T23:57:38.863Z,5.00
